createdAt,value
2024-04-19T00:00:03.836Z,75.64
2024-04-19T00:05:11.939Z,75.96
2024-04-19T00:10:14.955Z,75.20
2024-04-19T00:15:21.754Z,75.48
2024-04-19T00:20:29.843Z,76.21
2024-04-19T00:25:36.249Z,76.43
2024-04-19T00:30:39.151Z,76.52
2024-04-19T00:35:46.476Z,76.01
2024-04-19T00:40:55.304Z,74.41
2024-04-19T00:45:58.398Z,74.70
2024-04-19T00:51:04.233Z,75.28
2024-04-19T00:56:11.771Z,75.24
2024-04-19T01:01:16.388Z,74.78
2024-04-19T01:06:24.200Z,75.29
2024-04-19T01:11:31.232Z,75.04
2024-04-19T01:16:38.006Z,74.79
2024-04-19T01:21:42.959Z,72.96
2024-04-19T01:26:45.704Z,72.59
2024-04-19T01:31:48.318Z,73.52
2024-04-19T01:36:51.120Z,73.00
2024-04-19T01:41:58.797Z,72.08
2024-04-19T01:47:09.922Z,72.77
2024-04-19T01:52:15.074Z,74.47
2024-04-19T01:57:17.607Z,75.05
2024-04-19T02:02:24.122Z,74.95
2024-04-19T02:07:26.948Z,76.04
2024-04-19T02:12:39.068Z,76.32
2024-04-19T02:17:41.885Z,76.62
2024-04-19T02:22:44.600Z,76.43
2024-04-19T02:28:08.581Z,76.79
2024-04-19T02:33:11.670Z,76.61
2024-04-19T02:38:14.543Z,76.32
2024-04-19T02:43:19.691Z,75.76
2024-04-19T02:48:23.537Z,73.01
2024-04-19T02:53:27.547Z,73.50
2024-04-19T02:58:34.004Z,75.30
2024-04-19T03:03:43.147Z,75.45
2024-04-19T03:08:48.404Z,74.14
2024-04-19T03:13:58.122Z,75.54
2024-04-19T03:19:01.004Z,75.50
2024-04-19T03:24:10.890Z,75.35
2024-04-19T03:29:13.623Z,72.77
2024-04-19T03:34:16.209Z,72.60
2024-04-19T03:39:21.092Z,72.69
2024-04-19T03:44:42.776Z,73.50
2024-04-19T03:49:45.385Z,73.61
2024-04-19T03:54:50.529Z,72.61
2024-04-19T03:59:53.203Z,73.55
2024-04-19T04:05:00.317Z,74.12
2024-04-19T04:10:06.840Z,73.94
2024-04-19T04:15:09.608Z,72.39
2024-04-19T04:20:15.309Z,71.71
2024-04-19T04:25:21.196Z,70.27
2024-04-19T04:30:23.864Z,67.00
2024-04-19T04:35:26.871Z,62.97
2024-04-19T04:40:33.269Z,61.40
2024-04-19T04:45:38.084Z,58.24
2024-04-19T04:50:43.983Z,56.21
2024-04-19T04:55:46.647Z,54.77
2024-04-19T05:00:51.883Z,51.59
2024-04-19T05:05:57.831Z,50.42
2024-04-19T05:11:07.210Z,52.02
2024-04-19T05:16:11.499Z,51.20
2024-04-19T05:21:20.084Z,51.15
2024-04-19T05:26:25.318Z,50.18
2024-04-19T05:31:31.348Z,47.88
2024-04-19T05:36:34.032Z,49.75
2024-04-19T05:41:39.051Z,51.62
2024-04-19T05:46:44.692Z,50.63
2024-04-19T05:51:47.412Z,48.65
2024-04-19T05:56:50.048Z,50.70
2024-04-19T06:02:06.382Z,53.28
2024-04-19T06:07:10.983Z,54.62
2024-04-19T06:12:19.949Z,54.92
2024-04-19T06:17:22.679Z,52.74
2024-04-19T06:22:25.418Z,53.12
2024-04-19T06:27:28.170Z,52.19
2024-04-19T06:32:30.809Z,54.09
2024-04-19T06:37:33.528Z,54.69
2024-04-19T06:42:36.518Z,55.89
2024-04-19T06:47:39.347Z,53.31
2024-04-19T06:52:45.020Z,51.73
2024-04-19T06:57:47.906Z,52.18
2024-04-19T07:02:50.985Z,53.10
2024-04-19T07:08:03.583Z,54.62
2024-04-19T07:13:09.825Z,55.95
2024-04-19T07:18:12.421Z,57.06
2024-04-19T07:23:37.809Z,58.13
2024-04-19T07:42:28.114Z,43.06
2024-04-19T07:47:30.745Z,43.50
2024-04-19T07:52:36.297Z,41.96
2024-04-19T07:57:39.070Z,41.96
2024-04-19T08:02:47.168Z,43.05
2024-04-19T08:08:03.530Z,44.25
2024-04-19T08:13:08.013Z,46.29
2024-04-19T08:18:15.660Z,45.64
2024-04-19T08:23:18.591Z,43.31
2024-04-19T08:28:32.919Z,40.88
2024-04-19T08:33:56.298Z,40.27
2024-04-19T08:39:03.554Z,40.47
2024-04-19T08:44:12.742Z,39.81
2024-04-19T08:49:16.940Z,39.96
2024-04-19T09:01:42.655Z,37.66
2024-04-19T09:06:50.248Z,38.51
2024-04-19T09:15:25.991Z,39.29
2024-04-19T09:20:37.774Z,37.81
2024-04-19T09:39:03.224Z,40.55
2024-04-19T09:44:16.502Z,42.70
2024-04-19T10:03:36.790Z,43.59
2024-04-19T10:09:57.057Z,44.65
2024-04-19T10:41:27.685Z,49.72
2024-04-19T10:46:33.896Z,49.62
2024-04-19T10:51:36.739Z,51.34
2024-04-19T10:56:39.638Z,52.07
2024-04-19T11:01:47.798Z,54.10
2024-04-19T11:06:50.733Z,54.11
2024-04-19T11:11:53.859Z,55.88
2024-04-19T11:16:59.835Z,56.87
2024-04-19T11:22:02.687Z,57.59
2024-04-19T11:27:09.102Z,58.07
2024-04-19T11:32:14.240Z,58.73
2024-04-19T11:37:20.378Z,58.95
2024-04-19T11:42:26.310Z,60.07
2024-04-19T11:47:29.126Z,59.46
2024-04-19T11:52:32.493Z,59.46
2024-04-19T11:57:35.354Z,60.29
2024-04-19T12:02:38.293Z,59.89
2024-04-19T12:07:49.164Z,60.25
2024-04-19T12:13:36.680Z,59.84
2024-04-19T12:18:24.681Z,59.58
2024-04-19T12:23:31.476Z,59.82
2024-04-19T12:28:38.489Z,59.40
2024-04-19T12:33:44.782Z,58.67
2024-04-19T12:38:47.603Z,58.08
2024-04-19T12:43:54.538Z,56.84
2024-04-19T12:49:14.653Z,54.49
2024-04-19T12:54:20.136Z,53.69
2024-04-19T12:59:24.960Z,54.13
2024-04-19T13:04:31.080Z,54.64
2024-04-19T13:09:37.950Z,55.03
2024-04-19T13:14:45.511Z,54.78
2024-04-19T13:19:50.158Z,54.31
2024-04-19T13:24:52.918Z,53.54
2024-04-19T13:29:58.563Z,53.47
2024-04-19T13:35:04.745Z,53.04
2024-04-19T13:40:08.571Z,52.30
2024-04-19T13:45:13.755Z,52.42
2024-04-19T13:50:19.348Z,53.36
2024-04-19T13:55:28.110Z,53.43
2024-04-19T14:00:31.030Z,53.36
2024-04-19T14:05:33.974Z,53.42
2024-04-19T14:10:38.636Z,53.29
2024-04-19T14:15:47.637Z,53.31
2024-04-19T14:20:54.399Z,53.35
2024-04-19T14:25:57.528Z,52.97
2024-04-19T14:31:06.373Z,53.55
2024-04-19T14:36:11.090Z,53.58
2024-04-19T14:41:13.820Z,53.01
2024-04-19T14:46:36.567Z,52.88
2024-04-19T14:51:48.981Z,52.32
2024-04-19T14:56:55.419Z,52.72
2024-04-19T15:02:00.788Z,52.50
2024-04-19T15:07:07.757Z,52.73
2024-04-19T15:12:12.258Z,53.14
2024-04-19T15:17:20.329Z,53.40
2024-04-19T15:22:22.981Z,53.52
2024-04-19T15:27:25.692Z,53.06
2024-04-19T15:32:29.209Z,53.22
2024-04-19T15:37:34.347Z,52.44
2024-04-19T15:42:37.083Z,51.90
2024-04-19T15:47:40.152Z,51.24
2024-04-19T15:52:45.048Z,50.68
2024-04-19T15:57:52.589Z,50.70
2024-04-19T16:02:59.290Z,50.56
2024-04-19T16:08:02.034Z,50.27
2024-04-19T16:13:07.630Z,50.51
2024-04-19T16:18:14.232Z,50.27
2024-04-19T16:23:16.755Z,50.11
2024-04-19T16:28:22.009Z,50.49
2024-04-19T16:33:28.571Z,49.97
2024-04-19T16:38:37.049Z,50.14
2024-04-19T16:43:39.743Z,50.48
2024-04-19T16:48:45.346Z,51.39
2024-04-19T16:53:48.788Z,56.78
2024-04-19T16:58:53.875Z,59.93
2024-04-19T17:03:57.101Z,62.77
2024-04-19T17:09:07.649Z,63.42
2024-04-19T17:14:12.343Z,62.57
2024-04-19T17:19:24.843Z,62.55
2024-04-19T17:24:29.816Z,63.37
2024-04-19T17:29:36.693Z,64.19
2024-04-19T17:34:43.603Z,63.58
2024-04-19T17:39:46.208Z,62.51
2024-04-19T17:44:49.045Z,59.45
2024-04-19T17:49:55.690Z,60.65
2024-04-19T17:54:58.654Z,62.15
2024-04-19T18:00:08.630Z,64.08
2024-04-19T18:05:15.471Z,65.57
2024-04-19T18:10:22.373Z,65.21
2024-04-19T18:15:28.523Z,65.42
2024-04-19T18:20:31.578Z,64.74
2024-04-19T18:25:35.505Z,64.75
2024-04-19T18:30:44.154Z,65.34
2024-04-19T18:35:54.510Z,65.21
2024-04-19T18:41:00.344Z,65.14
2024-04-19T18:46:03.129Z,65.66
2024-04-19T18:51:10.144Z,65.79
2024-04-19T18:56:16.474Z,65.51
2024-04-19T19:01:27.549Z,65.72
2024-04-19T19:06:33.278Z,66.06
2024-04-19T19:11:38.318Z,66.10
2024-04-19T19:16:46.109Z,65.94
2024-04-19T19:21:51.206Z,66.09
2024-04-19T19:26:53.871Z,66.43
2024-04-19T19:31:58.996Z,67.05
2024-04-19T19:37:02.375Z,67.83
2024-04-19T19:42:27.047Z,68.42
2024-04-19T19:47:30.265Z,69.03
2024-04-19T19:52:32.966Z,69.35
2024-04-19T19:57:38.668Z,69.78
2024-04-19T20:03:10.683Z,69.97
2024-04-19T20:08:13.995Z,70.00
2024-04-19T20:13:17.058Z,69.74
2024-04-19T20:18:22.314Z,70.37
2024-04-19T20:23:30.247Z,70.66
2024-04-19T20:28:34.446Z,70.65
2024-04-19T20:33:39.481Z,70.29
2024-04-19T20:38:43.762Z,70.44
2024-04-19T20:43:48.750Z,70.58
2024-04-19T20:48:54.460Z,70.71
2024-04-19T20:53:59.125Z,71.08
2024-04-19T20:59:04.198Z,71.59
2024-04-19T21:04:09.760Z,71.48
2024-04-19T21:09:15.848Z,71.76
2024-04-19T21:14:22.111Z,72.21
2024-04-19T21:19:43.217Z,72.12
2024-04-19T21:24:59.810Z,71.92
2024-04-19T21:30:03.237Z,72.00
2024-04-19T21:35:06.320Z,72.67
2024-04-19T21:40:12.430Z,72.54
2024-04-19T21:45:17.211Z,72.82
2024-04-19T21:50:22.541Z,72.81
2024-04-19T21:55:25.120Z,73.07
2024-04-19T22:00:30.502Z,73.01
2024-04-19T22:05:36.638Z,73.21
2024-04-19T22:10:39.369Z,73.19
2024-04-19T22:15:44.872Z,73.07
2024-04-19T22:20:47.640Z,73.41
2024-04-19T22:25:52.752Z,73.51
2024-04-19T22:31:05.946Z,73.63
2024-04-19T22:36:10.651Z,73.22
2024-04-19T22:41:15.152Z,73.54
2024-04-19T22:46:20.834Z,73.33
2024-04-19T22:51:25.462Z,73.36
2024-04-19T22:56:28.067Z,73.67
2024-04-19T23:01:33.467Z,73.89
2024-04-19T23:06:36.698Z,74.14
2024-04-19T23:11:39.596Z,74.27
2024-04-19T23:16:44.384Z,74.43
2024-04-19T23:21:53.680Z,74.45
2024-04-19T23:26:56.588Z,74.47
2024-04-19T23:31:59.392Z,74.44
2024-04-19T23:37:02.037Z,74.70
2024-04-19T23:42:05.182Z,74.98
2024-04-19T23:47:10.488Z,75.01
2024-04-19T23:52:16.505Z,75.32
2024-04-19T23:57:19.594Z,75.28
